Terminal Aerodrome Forecast
Issued by NWS

Current Version | Previous Version | Graphics & Text | Print | Product List | Glossary On
Versions: 1 2 3 4 5 6 7 8 9 10 11 12 13 14 15 16 17 18 19 20 21 22
000
FTUS41 KRLX 100228 AAB
TAFCKB
TAF AMD
KCKB 100228Z 1002/1024 25010G18KT 6SM -SHSN OVC035
      TEMPO 1002/1005 2SM -SHSN BR SCT007 BKN015 OVC025
     FM100500 25011G17KT 6SM -SHSN OVC015
      TEMPO 1005/1009 4SM -SHSN BR SCT015 OVC025
     FM101300 26010G16KT P6SM OVC025
     FM102000 23011G17KT P6SM BKN080
     FM102300 22009KT P6SM BKN080=

USA.gov is the U.S. government's official web portal to all federal, state and local government web resources and services.